Terminal Aerodrome Forecast
Issued by NWS

Home | Current Version | Previous Version | Text Only | Print | Product List | Glossary On
Versions: 1 2 3 4 5 6 7 8 9 10 11 12 13 14 15
000
FTUS45 KABQ 051140
TAFGUP
TAF
KGUP 051140Z 0512/0612 VRB03KT P6SM BKN110
     FM051800 28007KT P6SM FEW080 BKN130
     FM052200 27009KT P6SM VCTS SCT080CB BKN130
     FM060100 22007KT P6SM VCSH BKN080
     FM060400 VRB05KT P6SM BKN090=

USA.gov is the U.S. government's official web portal to all federal, state and local government web resources and services.